Time;durP1;ratioP1;P1;durP2;ratioP2;P2;SDS_P1;SDS_P2;PMS_P1;PMS_P2;Temp;Humidity;BMP_temperature;BMP_pressure;BME280_temperature;BME280_humidity;BME280_pressure;Samples;Min_cycle;Max_cycle;Signal;HPM_P1;HPM_P2
2023/07/25 00:00:48;;;;;;;3.50;1.30;;;20.90;67.60;;;;;;10409591;28;20100;-59
2023/07/25 00:05:48;;;;;;;5.57;1.90;;;20.90;67.50;;;;;;10410058;28;20545;-58
2023/07/25 00:10:49;;;;;;;5.10;1.45;;;20.90;67.50;;;;;;10409343;28;20072;-59
2023/07/25 00:15:50;;;;;;;4.35;1.92;;;20.80;67.40;;;;;;10388914;28;20546;-58
2023/07/25 00:20:51;;;;;;;2.03;1.40;;;20.90;67.40;;;;;;10367080;28;20151;-59
2023/07/25 00:25:52;;;;;;;3.50;1.55;;;20.90;67.40;;;;;;10368374;28;20036;-59
2023/07/25 00:30:52;;;;;;;2.47;1.52;;;20.90;67.30;;;;;;10367855;28;20125;-59
2023/07/25 00:35:53;;;;;;;3.92;2.03;;;20.90;67.30;;;;;;10381084;28;20092;-57
2023/07/25 00:40:54;;;;;;;2.58;2.15;;;20.90;67.90;;;;;;10367360;28;20729;-59
2023/07/25 00:45:55;;;;;;;5.00;1.77;;;20.80;67.20;;;;;;10368737;28;20406;-59
2023/07/25 00:50:55;;;;;;;3.75;2.40;;;20.80;67.10;;;;;;10393853;28;20029;-58
2023/07/25 00:55:56;;;;;;;2.03;1.48;;;20.80;67.10;;;;;;10366901;28;20015;-58
2023/07/25 01:01:04;;;;;;;4.60;1.75;;;20.80;67.00;;;;;;10366200;28;20022;-58
2023/07/25 01:06:12;;;;;;;2.60;1.70;;;20.80;67.10;;;;;;10366580;28;20575;-59
2023/07/25 01:11:12;;;;;;;2.00;1.55;;;20.80;67.10;;;;;;10401867;28;20507;-59
2023/07/25 01:16:17;;;;;;;3.22;1.55;;;20.80;67.00;;;;;;10383449;28;20109;-59
2023/07/25 01:21:21;;;;;;;2.05;1.58;;;20.80;67.00;;;;;;10365030;28;20052;-59
2023/07/25 01:26:23;;;;;;;2.30;1.20;;;20.80;66.90;;;;;;10365800;28;20056;-59
2023/07/25 01:31:24;;;;;;;3.25;1.58;;;20.80;67.10;;;;;;10365548;28;20034;-59
2023/07/25 01:36:24;;;;;;;3.15;1.65;;;20.80;66.80;;;;;;10365678;28;20092;-58
2023/07/25 01:41:25;;;;;;;2.22;1.30;;;20.70;66.70;;;;;;10365444;28;20124;-59
2023/07/25 01:46:25;;;;;;;2.63;1.73;;;20.70;66.70;;;;;;10365188;28;20118;-57
2023/07/25 01:51:27;;;;;;;2.50;1.60;;;20.70;66.70;;;;;;10379909;28;20095;-59
2023/07/25 01:56:28;;;;;;;2.65;1.70;;;20.70;66.70;;;;;;10365059;28;20125;-59
2023/07/25 02:01:28;;;;;;;3.25;2.42;;;20.70;66.70;;;;;;10364665;28;20497;-59
2023/07/25 02:06:29;;;;;;;2.50;1.90;;;20.70;66.60;;;;;;10363062;28;20450;-59
2023/07/25 02:11:30;;;;;;;3.15;1.70;;;20.70;66.50;;;;;;10401464;28;20030;-59
2023/07/25 02:16:33;;;;;;;3.20;1.60;;;20.70;66.50;;;;;;10379494;28;20830;-58
2023/07/25 02:21:34;;;;;;;3.40;1.80;;;20.70;66.40;;;;;;10364582;28;20026;-59
2023/07/25 02:26:35;;;;;;;2.92;1.90;;;20.70;66.40;;;;;;10364080;28;20105;-59
2023/07/25 02:31:35;;;;;;;3.00;1.45;;;20.70;66.40;;;;;;10364255;28;20117;-58
2023/07/25 02:36:36;;;;;;;2.13;1.63;;;20.70;66.30;;;;;;10362887;28;20057;-58
2023/07/25 02:41:37;;;;;;;2.58;1.83;;;20.60;66.20;;;;;;10381024;28;20089;-59
2023/07/25 02:46:37;;;;;;;3.45;1.67;;;20.60;66.20;;;;;;10371922;28;20053;-58
2023/07/25 02:51:38;;;;;;;2.33;1.50;;;20.60;66.80;;;;;;10363298;28;20108;-58
2023/07/25 02:56:39;;;;;;;2.42;1.33;;;20.60;66.20;;;;;;10363636;28;20429;-58
2023/07/25 03:01:39;;;;;;;2.90;1.33;;;20.60;66.10;;;;;;10363224;28;20092;-58
2023/07/25 03:06:40;;;;;;;2.55;1.70;;;20.60;66.10;;;;;;10361863;28;20064;-59
2023/07/25 03:11:41;;;;;;;4.80;1.50;;;20.60;66.00;;;;;;10402533;28;20080;-59
2023/07/25 03:16:41;;;;;;;1.92;1.38;;;20.60;66.00;;;;;;10390099;28;20022;-59
2023/07/25 03:21:42;;;;;;;3.35;1.77;;;20.60;66.00;;;;;;10366429;28;20022;-58
2023/07/25 03:26:43;;;;;;;3.00;1.58;;;20.60;66.00;;;;;;10370114;28;20512;-58
2023/07/25 03:31:43;;;;;;;3.00;1.58;;;20.50;65.90;;;;;;10368161;28;20026;-58
2023/07/25 03:36:44;;;;;;;1.90;1.42;;;20.50;65.90;;;;;;10378742;28;20026;-59
2023/07/25 03:41:45;;;;;;;3.30;2.00;;;20.60;66.00;;;;;;10404250;28;20144;-59
2023/07/25 03:46:46;;;;;;;2.47;1.85;;;20.60;66.00;;;;;;10406055;28;20057;-58
2023/07/25 03:51:47;;;;;;;2.45;1.30;;;20.60;65.90;;;;;;10406574;28;20435;-60
2023/07/25 03:56:47;;;;;;;3.88;1.80;;;20.60;67.10;;;;;;10403728;28;20088;-59
2023/07/25 04:01:48;;;;;;;2.88;1.55;;;20.60;67.10;;;;;;10406400;28;20140;-59
2023/07/25 04:06:49;;;;;;;3.88;1.95;;;20.60;66.30;;;;;;10402525;28;20081;-61
2023/07/25 04:11:49;;;;;;;3.80;2.20;;;20.60;66.60;;;;;;10405019;28;20086;-60
2023/07/25 04:16:50;;;;;;;2.83;1.63;;;20.60;66.10;;;;;;10400270;28;20113;-61
2023/07/25 04:21:50;;;;;;;2.92;1.58;;;20.60;66.20;;;;;;10402442;28;20053;-60
2023/07/25 04:26:51;;;;;;;2.75;1.52;;;20.60;66.20;;;;;;10402925;28;20560;-60
2023/07/25 04:31:52;;;;;;;4.00;2.25;;;20.50;66.30;;;;;;10403182;28;20120;-60
2023/07/25 04:36:53;;;;;;;2.55;1.50;;;20.50;65.50;;;;;;10402283;28;20105;-60
2023/07/25 04:41:53;;;;;;;2.83;1.50;;;20.50;65.20;;;;;;10372299;28;20138;-61
2023/07/25 04:46:54;;;;;;;2.75;1.63;;;20.50;65.10;;;;;;10365681;28;20105;-60
2023/07/25 04:51:54;;;;;;;2.58;1.50;;;20.50;65.00;;;;;;10366783;28;20026;-60
2023/07/25 04:56:55;;;;;;;3.83;1.85;;;20.40;64.90;;;;;;10366827;28;20053;-60
2023/07/25 05:01:56;;;;;;;2.92;1.67;;;20.40;64.80;;;;;;10366995;28;20440;-60
2023/07/25 05:06:56;;;;;;;4.18;2.00;;;20.40;64.80;;;;;;10367363;28;20028;-60
2023/07/25 05:11:57;;;;;;;3.67;1.58;;;20.50;65.40;;;;;;10406051;28;20141;-60
2023/07/25 05:16:58;;;;;;;2.33;1.88;;;20.50;65.50;;;;;;10381062;28;20025;-60
2023/07/25 05:21:58;;;;;;;3.22;2.38;;;20.50;65.60;;;;;;10375774;28;20068;-61
2023/07/25 05:26:59;;;;;;;2.95;1.90;;;20.50;65.70;;;;;;10366119;28;20030;-61
2023/07/25 05:32:00;;;;;;;2.30;2.10;;;20.50;66.10;;;;;;10381251;28;20033;-61
2023/07/25 05:37:00;;;;;;;4.13;2.75;;;20.50;65.90;;;;;;10365278;28;20465;-61
2023/07/25 05:42:01;;;;;;;4.45;2.28;;;20.50;66.00;;;;;;10365170;28;20074;-61
2023/07/25 05:47:05;;;;;;;3.95;2.40;;;20.50;66.30;;;;;;10365497;28;20618;-62
2023/07/25 05:52:06;;;;;;;6.65;2.58;;;20.60;66.60;;;;;;10396261;28;20550;-59
2023/07/25 05:57:07;;;;;;;6.43;2.30;;;20.70;66.90;;;;;;10378046;28;20018;-60
2023/07/25 06:02:09;;;;;;;9.93;2.20;;;20.80;66.90;;;;;;10364838;28;20026;-59
2023/07/25 06:07:09;;;;;;;6.03;2.53;;;20.80;67.00;;;;;;10366132;28;20413;-60
2023/07/25 06:12:10;;;;;;;8.90;2.47;;;20.90;67.00;;;;;;10405155;28;20037;-59
2023/07/25 06:17:11;;;;;;;5.28;2.15;;;20.80;66.90;;;;;;10403779;28;20013;-59
2023/07/25 06:22:12;;;;;;;4.65;2.67;;;20.80;67.00;;;;;;10403920;28;20112;-65
2023/07/25 06:27:12;;;;;;;8.10;2.20;;;20.80;67.10;;;;;;10404957;28;20048;-63
2023/07/25 06:32:13;;;;;;;17.83;3.17;;;20.80;67.10;;;;;;10403531;28;20072;-64
2023/07/25 06:37:14;;;;;;;12.88;2.80;;;20.80;67.20;;;;;;10387011;28;20780;-61
2023/07/25 06:42:14;;;;;;;15.77;4.15;;;20.80;67.50;;;;;;10378827;28;20049;-60
2023/07/25 06:47:15;;;;;;;10.70;3.40;;;20.80;67.30;;;;;;10404935;28;20652;-63
2023/07/25 06:52:16;;;;;;;13.70;3.45;;;20.80;67.00;;;;;;10400042;28;20465;-58
2023/07/25 06:57:16;;;;;;;18.23;3.83;;;20.90;67.60;;;;;;10405584;28;20692;-59
2023/07/25 07:02:17;;;;;;;14.98;2.83;;;21.00;67.40;;;;;;10412458;28;20464;-57
2023/07/25 07:07:18;;;;;;;14.98;3.25;;;20.90;67.40;;;;;;10412315;28;20097;-58
2023/07/25 07:12:18;;;;;;;26.63;4.18;;;20.90;67.50;;;;;;10409560;28;20112;-58
2023/07/25 07:17:19;;;;;;;13.98;3.53;;;20.80;67.30;;;;;;10410925;28;20111;-58
2023/07/25 07:22:20;;;;;;;15.23;3.20;;;20.80;67.50;;;;;;10408990;28;20076;-57
2023/07/25 07:27:22;;;;;;;10.95;3.90;;;20.80;67.10;;;;;;10411517;28;20014;-60
2023/07/25 07:32:23;;;;;;;9.57;3.33;;;20.80;67.00;;;;;;10411368;28;20033;-58
2023/07/25 07:37:24;;;;;;;13.05;2.92;;;20.80;66.90;;;;;;10409950;28;20479;-61
2023/07/25 07:42:24;;;;;;;10.68;3.08;;;20.80;67.00;;;;;;10409651;28;20076;-58
2023/07/25 07:47:25;;;;;;;13.65;2.90;;;20.80;66.80;;;;;;10408590;28;20028;-58
2023/07/25 07:52:26;;;;;;;8.98;2.80;;;20.90;66.90;;;;;;10407976;28;20112;-58
2023/07/25 07:57:27;;;;;;;7.93;2.25;;;20.90;66.50;;;;;;10409599;28;20535;-57
2023/07/25 08:02:28;;;;;;;9.75;2.85;;;20.80;66.30;;;;;;10388807;28;20026;-58
2023/07/25 08:07:29;;;;;;;6.18;2.10;;;20.90;66.70;;;;;;10398344;28;20373;-58
2023/07/25 08:12:30;;;;;;;11.27;2.70;;;21.00;66.80;;;;;;10409797;28;20033;-57
2023/07/25 08:17:31;;;;;;;14.35;3.60;;;21.00;66.70;;;;;;10375330;28;20035;-55
2023/07/25 08:22:32;;;;;;;16.50;3.20;;;20.90;66.70;;;;;;10368174;28;20526;-56
2023/07/25 08:27:32;;;;;;;18.33;3.17;;;20.90;67.00;;;;;;10367580;28;20113;-54
2023/07/25 08:32:33;;;;;;;18.98;3.05;;;20.90;67.10;;;;;;10367769;28;20069;-55
2023/07/25 08:37:34;;;;;;;36.58;4.55;;;20.90;66.80;;;;;;10403401;28;20443;-55
2023/07/25 08:42:36;;;;;;;22.15;4.70;;;21.00;66.60;;;;;;10403357;28;20037;-54
2023/07/25 08:47:43;;;;;;;16.45;3.70;;;21.00;66.70;;;;;;10400201;28;20361;-57
2023/07/25 08:52:53;;;;;;;18.23;3.75;;;21.10;66.30;;;;;;10404684;28;20385;-58
2023/07/25 08:57:55;;;;;;;9.32;2.97;;;21.20;66.10;;;;;;10408050;28;20017;-59
2023/07/25 09:02:56;;;;;;;20.65;4.35;;;21.30;66.20;;;;;;10403356;28;20039;-57
2023/07/25 09:07:59;;;;;;;15.55;3.90;;;21.40;65.90;;;;;;10406408;28;20022;-59
2023/07/25 09:12:59;;;;;;;10.32;3.38;;;21.50;65.80;;;;;;10422302;28;20075;-60
2023/07/25 09:18:00;;;;;;;9.23;3.60;;;21.60;65.60;;;;;;10379576;28;20117;-59
2023/07/25 09:23:02;;;;;;;13.70;3.28;;;21.60;66.20;;;;;;10407115;28;20021;-58
2023/07/25 09:28:06;;;;;;;14.77;4.22;;;21.60;66.80;;;;;;10406518;28;20026;-57
2023/07/25 09:33:07;;;;;;;13.07;3.83;;;21.60;66.40;;;;;;10405018;28;20046;-56
2023/07/25 09:38:07;;;;;;;33.17;5.35;;;21.70;66.30;;;;;;10365819;28;20100;-57
2023/07/25 09:43:08;;;;;;;16.48;3.78;;;21.70;66.40;;;;;;10365540;28;20536;-57
2023/07/25 09:48:09;;;;;;;17.45;4.40;;;21.80;65.70;;;;;;10365842;28;20029;-58
2023/07/25 09:53:11;;;;;;;10.23;3.15;;;21.80;65.50;;;;;;10365134;28;20072;-58
2023/07/25 09:58:12;;;;;;;11.63;3.65;;;21.80;65.10;;;;;;10364111;28;20017;-58
2023/07/25 10:03:13;;;;;;;14.23;3.38;;;21.80;65.00;;;;;;10364673;28;20026;-56
2023/07/25 10:08:16;;;;;;;12.40;3.53;;;21.80;64.80;;;;;;10375095;28;20022;-57
2023/07/25 10:13:17;;;;;;;5.38;2.78;;;21.90;64.60;;;;;;10404923;28;20033;-56
2023/07/25 10:18:25;;;;;;;11.75;2.80;;;21.90;64.20;;;;;;10399297;28;20806;-57
2023/07/25 10:23:34;;;;;;;15.90;3.40;;;22.00;63.60;;;;;;10398082;28;20480;-57
2023/07/25 10:28:35;;;;;;;15.18;3.55;;;22.00;63.50;;;;;;10400529;28;20026;-57
2023/07/25 10:33:42;;;;;;;13.73;3.00;;;22.00;63.90;;;;;;10406574;28;20048;-58
2023/07/25 10:38:45;;;;;;;8.32;3.20;;;22.10;63.90;;;;;;10406149;28;20096;-58
2023/07/25 10:43:48;;;;;;;8.23;2.75;;;22.10;64.20;;;;;;10407466;28;20083;-57
2023/07/25 10:49:14;;;;;;;9.60;3.58;;;22.20;64.30;;;;;;10400833;28;20033;-57
2023/07/25 10:54:17;;;;;;;9.75;2.65;;;22.30;63.90;;;;;;10371098;28;20072;-57
2023/07/25 10:59:17;;;;;;;12.07;3.22;;;22.20;64.20;;;;;;10372151;28;20108;-57
2023/07/25 11:04:30;;;;;;;10.43;3.25;;;22.10;64.30;;;;;;10370275;28;20100;-56
2023/07/25 11:09:31;;;;;;;11.63;3.20;;;22.10;64.00;;;;;;10392282;28;20080;-55
2023/07/25 11:14:33;;;;;;;7.32;2.28;;;21.90;64.00;;;;;;10405521;28;20105;-58
2023/07/25 11:19:34;;;;;;;8.25;2.88;;;21.80;64.20;;;;;;10411839;28;20021;-58
2023/07/25 11:24:47;;;;;;;8.90;2.75;;;21.70;64.70;;;;;;10411520;28;20022;-57
2023/07/25 11:29:47;;;;;;;8.50;1.98;;;21.60;64.50;;;;;;10410180;28;20095;-58
2023/07/25 11:34:49;;;;;;;5.28;2.28;;;21.60;64.50;;;;;;10411130;28;20068;-57
2023/07/25 11:39:50;;;;;;;7.85;2.05;;;21.60;64.30;;;;;;10408552;28;20049;-58
2023/07/25 11:44:51;;;;;;;4.75;2.30;;;21.50;64.00;;;;;;10405328;28;20021;-58
2023/07/25 11:49:52;;;;;;;5.85;1.65;;;21.50;64.10;;;;;;10405105;28;20071;-58
2023/07/25 11:54:52;;;;;;;3.25;1.50;;;21.50;64.10;;;;;;10406800;28;20033;-58
2023/07/25 11:59:54;;;;;;;3.97;1.70;;;21.50;64.20;;;;;;10402463;28;20029;-57
2023/07/25 12:04:55;;;;;;;3.58;1.73;;;21.50;64.00;;;;;;10403732;28;20045;-58
2023/07/25 12:09:57;;;;;;;24.75;4.18;;;21.40;64.10;;;;;;10377284;28;20192;-57
2023/07/25 12:15:01;;;;;;;4.88;1.63;;;21.40;63.60;;;;;;10390792;28;20042;-58
2023/07/25 12:20:12;;;;;;;3.80;1.75;;;21.40;63.90;;;;;;10372899;28;20026;-57
2023/07/25 12:25:18;;;;;;;4.75;1.70;;;21.40;63.80;;;;;;10368342;28;20076;-57
2023/07/25 12:30:18;;;;;;;5.20;1.60;;;21.40;63.90;;;;;;10388856;28;20029;-56
2023/07/25 12:35:19;;;;;;;6.32;1.83;;;21.40;63.80;;;;;;10406019;28;20777;-57
2023/07/25 12:40:20;;;;;;;3.42;1.30;;;21.50;63.80;;;;;;10405202;28;20518;-58
2023/07/25 12:45:21;;;;;;;4.57;1.27;;;21.50;63.20;;;;;;10406750;28;20594;-56
2023/07/25 12:50:21;;;;;;;3.53;1.70;;;21.50;63.10;;;;;;10408285;28;20049;-56
2023/07/25 12:55:22;;;;;;;4.80;1.30;;;21.60;63.00;;;;;;10383424;28;20491;-56
2023/07/25 13:00:23;;;;;;;3.05;1.10;;;21.60;62.80;;;;;;10367306;28;20356;-57
2023/07/25 13:05:27;;;;;;;4.22;1.55;;;21.60;62.70;;;;;;10366745;28;20105;-57
2023/07/25 13:10:29;;;;;;;14.45;3.78;;;21.70;62.60;;;;;;10394783;28;20033;-59
2023/07/25 13:15:30;;;;;;;11.30;2.33;;;21.70;63.20;;;;;;10400399;28;20045;-57
2023/07/25 13:20:31;;;;;;;8.85;2.50;;;21.70;62.50;;;;;;10403980;28;20033;-57
2023/07/25 13:25:32;;;;;;;9.52;2.15;;;21.60;63.00;;;;;;10404596;28;20025;-57
2023/07/25 13:30:32;;;;;;;6.57;2.60;;;21.50;63.20;;;;;;10404359;28;20053;-58
2023/07/25 13:35:33;;;;;;;8.65;1.75;;;21.40;63.20;;;;;;10403197;28;20022;-58
2023/07/25 13:40:34;;;;;;;7.38;2.10;;;21.40;63.40;;;;;;10404020;28;20065;-57
2023/07/25 13:45:35;;;;;;;8.55;1.58;;;21.40;63.30;;;;;;10403892;28;20104;-58
2023/07/25 13:50:35;;;;;;;4.78;1.20;;;21.40;63.40;;;;;;10404191;28;20087;-57
2023/07/25 13:55:36;;;;;;;6.90;2.10;;;21.40;63.40;;;;;;10403781;28;20328;-58
2023/07/25 14:00:37;;;;;;;4.32;1.50;;;21.40;63.30;;;;;;10403363;28;20571;-57
2023/07/25 14:05:37;;;;;;;4.85;1.73;;;21.40;63.20;;;;;;10403554;28;20432;-57
2023/07/25 14:10:42;;;;;;;2.35;1.20;;;21.40;63.20;;;;;;10389790;28;20076;-57
2023/07/25 14:15:43;;;;;;;4.13;1.92;;;21.40;63.30;;;;;;10384036;28;20161;-57
2023/07/25 14:20:43;;;;;;;3.08;1.50;;;21.40;63.20;;;;;;10362444;28;20022;-55
2023/07/25 14:25:44;;;;;;;3.78;1.40;;;21.40;63.20;;;;;;10344633;28;20068;-55
2023/07/25 14:30:45;;;;;;;2.22;1.15;;;21.40;63.20;;;;;;10362201;28;20022;-58
2023/07/25 14:35:46;;;;;;;1.17;0.70;;;21.40;63.20;;;;;;10362066;28;20513;-57
2023/07/25 14:40:47;;;;;;;5.45;1.30;;;21.40;63.40;;;;;;10361626;28;20065;-56
2023/07/25 14:45:48;;;;;;;4.25;1.67;;;21.30;63.40;;;;;;10362193;28;20022;-57
2023/07/25 14:50:49;;;;;;;2.10;0.95;;;21.40;63.50;;;;;;10360076;28;20053;-57
2023/07/25 14:55:49;;;;;;;4.57;1.20;;;21.30;63.30;;;;;;10378095;28;20069;-57
2023/07/25 15:00:50;;;;;;;4.63;1.10;;;21.40;63.20;;;;;;10364033;28;20026;-55
2023/07/25 15:05:51;;;;;;;2.45;1.35;;;21.40;62.50;;;;;;10383435;28;20022;-57
2023/07/25 15:10:52;;;;;;;6.53;1.95;;;21.60;63.50;;;;;;10403631;28;20549;-58
2023/07/25 15:15:52;;;;;;;4.05;1.30;;;21.60;62.60;;;;;;10384608;28;20025;-58
2023/07/25 15:20:53;;;;;;;5.00;1.17;;;21.50;62.20;;;;;;10395472;28;20029;-56
2023/07/25 15:25:54;;;;;;;6.60;1.30;;;21.60;64.10;;;;;;10408875;28;20017;-58
2023/07/25 15:30:56;;;;;;;4.80;1.40;;;21.70;63.70;;;;;;10411560;28;20497;-58
2023/07/25 15:35:57;;;;;;;4.47;1.30;;;21.70;64.10;;;;;;10411660;28;20377;-56
2023/07/25 15:40:58;;;;;;;10.85;1.92;;;21.70;61.70;;;;;;10411279;28;20053;-56
2023/07/25 15:45:58;;;;;;;9.32;3.05;;;21.70;59.70;;;;;;10410284;28;20030;-56
2023/07/25 15:50:59;;;;;;;10.65;2.03;;;21.70;63.00;;;;;;10402614;28;20124;-56
2023/07/25 15:56:00;;;;;;;14.27;2.88;;;21.70;59.70;;;;;;10410715;28;20018;-56
2023/07/25 16:01:00;;;;;;;3.00;1.15;;;21.80;62.90;;;;;;10410436;28;20033;-56
2023/07/25 16:06:01;;;;;;;10.13;1.35;;;21.90;61.40;;;;;;10410375;28;20026;-55
2023/07/25 16:11:02;;;;;;;6.63;1.45;;;22.00;59.90;;;;;;10389309;28;20089;-56
2023/07/25 16:16:02;;;;;;;9.15;3.22;;;22.00;60.20;;;;;;10391332;28;20031;-56
2023/07/25 16:21:03;;;;;;;8.10;1.80;;;22.00;59.10;;;;;;10409877;28;20025;-57
2023/07/25 16:26:04;;;;;;;4.28;1.65;;;22.00;59.50;;;;;;10392031;28;20404;-57
2023/07/25 16:31:05;;;;;;;5.50;1.40;;;22.00;58.50;;;;;;10408045;28;20083;-56
2023/07/25 16:36:06;;;;;;;7.25;1.95;;;22.00;58.70;;;;;;10405784;28;20056;-57
2023/07/25 16:41:07;;;;;;;7.57;1.60;;;21.90;59.10;;;;;;10405865;28;20723;-57
2023/07/25 16:46:07;;;;;;;10.23;2.08;;;21.80;59.40;;;;;;10372005;28;20493;-55
2023/07/25 16:51:08;;;;;;;6.80;2.03;;;21.70;60.20;;;;;;10404222;28;20364;-57
2023/07/25 16:56:09;;;;;;;9.15;1.58;;;21.60;59.80;;;;;;10404250;28;20104;-58
2023/07/25 17:01:10;;;;;;;6.20;1.30;;;21.60;59.20;;;;;;10407911;28;20013;-58
2023/07/25 17:06:12;;;;;;;4.43;1.30;;;21.60;59.10;;;;;;10407635;28;20464;-55
2023/07/25 17:11:14;;;;;;;5.25;1.95;;;21.50;58.50;;;;;;10384908;28;20033;-57
2023/07/25 17:16:15;;;;;;;5.40;1.52;;;21.50;58.80;;;;;;10390046;28;20083;-57
2023/07/25 17:21:15;;;;;;;3.65;1.30;;;21.50;58.20;;;;;;10367582;28;20018;-56
2023/07/25 17:26:16;;;;;;;2.80;1.50;;;21.50;57.90;;;;;;10366091;28;20434;-57
2023/07/25 17:31:17;;;;;;;2.42;1.20;;;21.50;58.00;;;;;;10379316;28;20107;-57
2023/07/25 17:36:17;;;;;;;3.38;1.30;;;21.50;57.90;;;;;;10404939;28;20029;-56
2023/07/25 17:41:18;;;;;;;3.28;1.50;;;21.40;58.20;;;;;;10404711;28;20138;-56
2023/07/25 17:46:19;;;;;;;4.18;1.42;;;21.40;58.00;;;;;;10406125;28;20029;-55
2023/07/25 17:51:20;;;;;;;4.45;1.95;;;21.40;57.70;;;;;;10404845;28;20037;-56
2023/07/25 17:56:21;;;;;;;2.95;1.80;;;21.40;58.10;;;;;;10404834;28;20089;-57
2023/07/25 18:01:22;;;;;;;4.30;1.40;;;21.30;57.80;;;;;;10402652;28;20045;-57
2023/07/25 18:06:22;;;;;;;3.88;1.98;;;21.30;57.80;;;;;;10390763;28;20026;-55
2023/07/25 18:11:23;;;;;;;3.30;1.55;;;21.30;58.00;;;;;;10393661;28;20371;-57
2023/07/25 18:16:24;;;;;;;4.38;1.50;;;21.30;58.70;;;;;;10381221;28;20505;-56
2023/07/25 18:21:25;;;;;;;4.78;1.48;;;21.30;59.00;;;;;;10400756;28;20139;-57
2023/07/25 18:26:26;;;;;;;3.88;1.20;;;21.30;59.20;;;;;;10381386;28;20072;-55
2023/07/25 18:31:26;;;;;;;2.63;1.58;;;21.30;58.80;;;;;;10407446;28;20037;-57
2023/07/25 18:36:27;;;;;;;4.43;1.73;;;21.30;58.30;;;;;;10366752;28;20026;-57
2023/07/25 18:41:28;;;;;;;2.97;1.50;;;21.30;58.20;;;;;;10362612;28;20084;-57
2023/07/25 18:46:28;;;;;;;6.60;2.13;;;21.30;58.10;;;;;;10382921;28;20029;-57
2023/07/25 18:51:29;;;;;;;3.53;1.50;;;21.30;58.20;;;;;;10406366;28;20041;-53
2023/07/25 18:56:30;;;;;;;1.83;1.35;;;21.30;58.50;;;;;;10411726;28;20014;-57
2023/07/25 19:01:33;;;;;;;2.45;1.27;;;21.30;58.80;;;;;;10412189;28;20110;-59
2023/07/25 19:06:34;;;;;;;3.58;1.63;;;21.30;59.00;;;;;;10409512;28;20026;-57
2023/07/25 19:11:35;;;;;;;2.55;1.40;;;21.40;59.20;;;;;;10408783;28;20032;-57
2023/07/25 19:16:35;;;;;;;1.58;1.13;;;21.40;59.30;;;;;;10399353;28;20489;-56
2023/07/25 19:21:36;;;;;;;4.00;1.48;;;21.40;59.60;;;;;;10410249;28;20563;-57
2023/07/25 19:26:37;;;;;;;1.95;1.13;;;21.40;59.80;;;;;;10404968;28;20109;-56
2023/07/25 19:31:38;;;;;;;2.88;1.20;;;21.40;59.80;;;;;;10407791;28;20122;-56
2023/07/25 19:36:39;;;;;;;5.35;1.45;;;21.40;60.00;;;;;;10398837;28;20033;-56
2023/07/25 19:41:40;;;;;;;3.70;1.92;;;21.40;60.20;;;;;;10406544;28;20041;-58
2023/07/25 19:46:40;;;;;;;2.25;1.20;;;21.40;60.40;;;;;;10410336;28;20536;-58
2023/07/25 19:51:42;;;;;;;4.25;1.17;;;21.30;60.50;;;;;;10410648;28;20040;-58
2023/07/25 19:56:43;;;;;;;3.17;1.15;;;21.30;60.90;;;;;;10397161;28;20018;-59
2023/07/25 20:01:43;;;;;;;2.55;1.20;;;21.20;61.10;;;;;;10369286;28;20392;-57
2023/07/25 20:06:44;;;;;;;3.28;1.17;;;21.20;61.20;;;;;;10369192;28;20022;-58
2023/07/25 20:11:45;;;;;;;2.97;1.10;;;21.20;61.40;;;;;;10382298;28;20026;-58
2023/07/25 20:16:45;;;;;;;2.53;1.08;;;21.20;61.60;;;;;;10381565;28;20101;-58
2023/07/25 20:21:46;;;;;;;2.60;1.05;;;21.10;61.60;;;;;;10368404;28;20167;-56
2023/07/25 20:26:47;;;;;;;2.35;1.30;;;21.10;61.60;;;;;;10371424;28;20547;-58
2023/07/25 20:31:47;;;;;;;3.92;1.20;;;21.10;61.70;;;;;;10408293;28;20033;-58
2023/07/25 20:36:48;;;;;;;1.52;1.10;;;21.10;61.70;;;;;;10408662;28;20469;-56
2023/07/25 20:41:50;;;;;;;3.33;1.17;;;21.10;61.60;;;;;;10408332;28;20428;-58
2023/07/25 20:46:51;;;;;;;2.67;1.00;;;21.10;61.70;;;;;;10407235;28;20028;-58
2023/07/25 20:51:51;;;;;;;2.00;1.00;;;21.00;61.60;;;;;;10408371;28;20069;-58
2023/07/25 20:56:52;;;;;;;1.30;0.90;;;21.10;61.80;;;;;;10394921;28;20624;-57
2023/07/25 21:01:52;;;;;;;1.67;1.10;;;21.00;61.70;;;;;;10408229;28;20437;-58
2023/07/25 21:06:53;;;;;;;2.45;1.27;;;21.00;61.80;;;;;;10407466;28;20113;-58
2023/07/25 21:11:54;;;;;;;1.98;1.42;;;21.00;61.80;;;;;;10379589;28;20113;-58
2023/07/25 21:16:55;;;;;;;2.50;1.50;;;21.00;61.80;;;;;;10394803;28;20420;-57
2023/07/25 21:21:56;;;;;;;2.47;1.25;;;21.00;61.90;;;;;;10406793;28;20109;-56
2023/07/25 21:27:00;;;;;;;2.60;1.27;;;21.00;61.90;;;;;;10407078;28;20032;-59
2023/07/25 21:32:01;;;;;;;2.17;1.20;;;21.00;61.90;;;;;;10406828;28;20022;-58
2023/07/25 21:37:01;;;;;;;1.63;1.05;;;21.00;62.00;;;;;;10406338;28;20021;-58
2023/07/25 21:42:02;;;;;;;1.30;1.20;;;20.90;61.90;;;;;;10405845;28;20049;-57
2023/07/25 21:47:04;;;;;;;3.95;1.30;;;20.90;62.50;;;;;;10406157;28;20052;-57
2023/07/25 21:52:05;;;;;;;3.90;1.40;;;20.90;62.00;;;;;;10405897;28;20036;-57
2023/07/25 21:57:06;;;;;;;1.65;1.25;;;20.90;62.00;;;;;;10406329;28;20364;-58
2023/07/25 22:02:17;;;;;;;2.33;1.20;;;20.90;62.00;;;;;;10405526;28;20029;-58
2023/07/25 22:07:18;;;;;;;4.72;1.08;;;20.90;62.10;;;;;;10405502;28;20033;-58
2023/07/25 22:12:19;;;;;;;2.28;1.65;;;20.90;62.10;;;;;;10373725;28;20472;-57
2023/07/25 22:17:20;;;;;;;1.50;0.93;;;20.90;62.10;;;;;;10396703;28;20028;-58
2023/07/25 22:22:20;;;;;;;2.13;1.40;;;20.90;62.10;;;;;;10405083;28;20119;-58
2023/07/25 22:27:21;;;;;;;3.85;1.90;;;20.90;62.10;;;;;;10403316;28;20244;-59
2023/07/25 22:32:25;;;;;;;1.85;1.25;;;20.90;62.10;;;;;;10403283;28;20528;-58
2023/07/25 22:37:28;;;;;;;3.15;1.50;;;20.90;62.20;;;;;;10404823;28;20033;-58
2023/07/25 22:42:29;;;;;;;1.85;1.23;;;20.90;62.20;;;;;;10404596;28;20059;-58
2023/07/25 22:47:30;;;;;;;2.13;1.20;;;20.90;62.20;;;;;;10404438;28;20022;-58
2023/07/25 22:52:31;;;;;;;1.52;1.02;;;20.90;62.30;;;;;;10404247;28;20384;-58
2023/07/25 22:57:31;;;;;;;1.58;1.23;;;20.90;62.90;;;;;;10403897;28;20468;-57
2023/07/25 23:02:32;;;;;;;2.25;1.48;;;20.90;62.20;;;;;;10403927;28;20096;-58
2023/07/25 23:07:33;;;;;;;3.60;1.73;;;20.90;62.40;;;;;;10403896;28;20108;-57
2023/07/25 23:12:35;;;;;;;2.55;1.48;;;20.80;62.30;;;;;;10370151;28;20049;-56
2023/07/25 23:17:36;;;;;;;2.25;1.40;;;20.90;62.30;;;;;;10396819;28;20021;-57
2023/07/25 23:22:36;;;;;;;2.08;1.60;;;20.90;62.30;;;;;;10404056;28;20045;-56
2023/07/25 23:27:37;;;;;;;1.90;1.10;;;20.90;62.40;;;;;;10404106;28;20026;-58
2023/07/25 23:32:38;;;;;;;1.55;1.08;;;20.80;62.30;;;;;;10403658;28;20568;-58
2023/07/25 23:37:38;;;;;;;1.38;1.10;;;20.90;62.40;;;;;;10405471;28;20100;-58
2023/07/25 23:42:39;;;;;;;2.00;1.30;;;20.80;62.40;;;;;;10409331;28;20053;-57
2023/07/25 23:47:40;;;;;;;2.88;1.20;;;20.80;62.40;;;;;;10410785;28;20116;-58
2023/07/25 23:52:40;;;;;;;3.05;1.33;;;20.80;62.40;;;;;;10380804;28;20029;-57
2023/07/25 23:57:41;;;;;;;1.20;1.10;;;20.80;62.50;;;;;;10369657;28;20109;-58
